Time;durP1;ratioP1;P1;durP2;ratioP2;P2;SDS_P1;SDS_P2;PMS_P1;PMS_P2;Temp;Humidity;BMP_temperature;BMP_pressure;BME280_temperature;BME280_humidity;BME280_pressure;Samples;Min_cycle;Max_cycle;Signal;HPM_P1;HPM_P2
2023/01/12 00:01:11;;;;;;;11.23;10.00;;;;;;;6.33;75.45;99575.53;5093736;28;20496;-87
2023/01/12 00:03:36;;;;;;;12.15;10.48;;;;;;;6.23;75.54;99589.69;5093855;28;20024;-85
2023/01/12 00:06:06;;;;;;;11.60;10.40;;;;;;;6.55;75.68;99600.47;5093997;28;20095;-87
2023/01/12 00:08:35;;;;;;;12.43;11.15;;;;;;;6.18;75.24;99547.38;5092418;28;20036;-87
2023/01/12 00:11:01;;;;;;;11.13;10.00;;;;;;;7.05;75.86;99683.09;5092823;28;20499;-87
2023/01/12 00:13:31;;;;;;;11.82;10.30;;;;;;;7.17;75.42;99700.25;5093970;28;20027;-87
2023/01/12 00:18:45;;;;;;;12.93;11.63;;;;;;;6.52;75.75;99611.28;5093726;28;20456;-88
2023/01/12 00:21:11;;;;;;;13.57;11.45;;;;;;;6.43;75.45;99593.81;5093424;28;20038;-87
2023/01/12 00:23:36;;;;;;;12.93;11.55;;;;;;;6.96;76.01;99676.94;5092090;28;20028;-86
2023/01/12 00:26:02;;;;;;;14.23;12.63;;;;;;;6.73;75.42;99634.59;5093337;28;20548;-87
2023/01/12 00:28:27;;;;;;;13.70;11.45;;;;;;;7.23;76.05;99736.41;5092037;28;20603;-87
2023/01/12 00:30:58;;;;;;;14.98;12.38;;;;;;;6.62;75.44;99622.50;5091856;28;20107;-87
2023/01/12 00:33:24;;;;;;;12.40;11.07;;;;;;;6.42;75.79;99580.84;5108726;28;20032;-87
2023/01/12 00:35:49;;;;;;;13.43;11.73;;;;;;;6.98;75.56;99677.63;5094488;28;20020;-87
2023/01/12 00:38:15;;;;;;;12.45;11.18;;;;;;;7.03;76.05;99683.25;5092029;28;20484;-88
2023/01/12 00:40:40;;;;;;;13.68;12.18;;;;;;;6.61;75.91;99620.03;5091766;28;20027;-88
2023/01/12 00:45:49;;;;;;;13.00;11.57;;;;;;;6.41;75.86;99574.78;5093048;28;20047;-87
2023/01/12 00:48:15;;;;;;;13.73;11.90;;;;;;;6.93;75.88;99706.13;5091528;28;20501;-89
2023/01/12 00:50:40;;;;;;;14.88;12.95;;;;;;;6.49;75.82;99611.56;5092892;28;20024;-88
2023/01/12 00:53:06;;;;;;;19.33;14.98;;;;;;;6.91;76.03;99663.47;5091460;28;20016;-88
2023/01/12 00:55:31;;;;;;;16.23;14.07;;;;;;;7.25;76.10;99718.69;5091629;28;20023;-88
2023/01/12 00:57:57;;;;;;;16.30;12.95;;;;;;;6.63;76.09;99620.72;5092689;28;20077;-87
2023/01/12 01:00:22;;;;;;;14.15;12.77;;;;;;;7.27;76.25;99719.38;5091491;28;20028;-88
2023/01/12 01:02:48;;;;;;;15.27;13.05;;;;;;;6.69;75.70;99659.50;5091136;28;20109;-88
2023/01/12 01:05:14;;;;;;;14.23;12.70;;;;;;;6.74;75.84;99627.56;5090900;28;20016;-89
2023/01/12 01:07:39;;;;;;;15.35;13.18;;;;;;;6.92;75.90;99649.34;5092887;28;20020;-88
2023/01/12 01:10:05;;;;;;;16.58;14.50;;;;;;;6.70;75.68;99616.53;5091232;28;20012;-87
2023/01/12 01:12:31;;;;;;;14.93;13.32;;;;;;;6.84;75.84;99636.16;5091505;28;20456;-88
2023/01/12 01:14:57;;;;;;;15.23;13.40;;;;;;;6.98;75.97;99678.44;5092412;28;20051;-88
2023/01/12 01:17:22;;;;;;;15.73;13.32;;;;;;;6.84;75.92;99647.50;5092563;28;20099;-88
2023/01/12 01:19:48;;;;;;;19.40;14.27;;;;;;;7.27;76.15;99712.31;5090826;28;20040;-89
2023/01/12 01:22:13;;;;;;;18.15;14.48;;;;;;;6.77;75.83;99650.88;5090861;28;20028;-88
2023/01/12 01:24:39;;;;;;;16.23;13.82;;;;;;;7.11;76.21;99682.47;5092380;28;20024;-88
2023/01/12 01:27:05;;;;;;;16.35;14.65;;;;;;;6.91;75.65;99648.53;5090972;28;20115;-88
2023/01/12 01:29:30;;;;;;;15.93;13.88;;;;;;;7.06;75.65;99692.63;5092257;28;20052;-88
2023/01/12 01:31:56;;;;;;;15.68;13.82;;;;;;;6.87;75.80;99635.88;5092184;28;20027;-88
2023/01/12 01:34:25;;;;;;;15.23;13.50;;;;;;;7.07;76.07;99660.97;5090780;28;20107;-88
2023/01/12 01:36:50;;;;;;;15.80;14.15;;;;;;;6.78;75.92;99636.78;5090841;28;20043;-87
2023/01/12 01:39:15;;;;;;;14.73;13.18;;;;;;;6.77;75.74;99620.22;5090757;28;20024;-87
2023/01/12 01:41:41;;;;;;;11.95;10.75;;;;;;;6.99;76.05;99684.53;5092115;28;20521;-87
2023/01/12 01:44:28;;;;;;;13.52;12.13;;;;;;;7.33;75.67;99721.38;5090591;28;20020;-87
2023/01/12 01:47:00;;;;;;;14.00;11.35;;;;;;;6.88;75.36;99656.72;5090390;28;20024;-87
2023/01/12 01:49:49;;;;;;;13.05;11.57;;;;;;;7.27;75.69;99720.19;5090377;28;20027;-87
2023/01/12 01:52:26;;;;;;;12.40;11.13;;;;;;;6.68;76.14;99634.19;5084726;28;20028;-87
2023/01/12 01:54:56;;;;;;;12.35;11.05;;;;;;;6.68;75.86;99634.19;5090325;28;20083;-87
2023/01/12 01:57:29;;;;;;;12.63;10.20;;;;;;;7.01;76.06;99674.69;5091574;28;20024;-87
2023/01/12 01:59:56;;;;;;;11.68;10.48;;;;;;;6.57;75.34;99616.06;5090350;28;20028;-87
2023/01/12 02:02:24;;;;;;;14.25;11.82;;;;;;;7.17;75.33;99700.25;5090415;28;20424;-87
2023/01/12 02:04:50;;;;;;;13.07;11.35;;;;;;;7.01;75.55;99679.94;5091645;28;20490;-87
2023/01/12 02:07:15;;;;;;;11.38;9.82;;;;;;;6.96;75.83;99664.66;5090406;28;20103;-87
2023/01/12 02:09:41;;;;;;;10.68;9.45;;;;;;;6.77;75.56;99633.31;5091669;28;20485;-87
2023/01/12 02:17:51;;;;;;;10.85;9.75;;;;;;;7.37;75.46;99716.66;5091488;28;20054;-88
2023/01/12 02:20:26;;;;;;;12.03;10.80;;;;;;;7.38;75.88;99716.50;5089834;28;20040;-88
2023/01/12 02:23:01;;;;;;;11.95;10.35;;;;;;;7.36;75.40;99715.00;5091223;28;20035;-88
2023/01/12 02:25:52;;;;;;;11.90;10.50;;;;;;;7.33;75.99;99716.97;5091584;28;20024;-88
2023/01/12 02:28:49;;;;;;;11.30;10.10;;;;;;;7.06;75.80;99679.50;5083137;28;20040;-88
2023/01/12 02:31:41;;;;;;;12.80;10.60;;;;;;;7.36;76.19;99715.00;5090066;28;20339;-88
2023/01/12 02:34:17;;;;;;;11.85;10.65;;;;;;;6.75;75.90;99611.66;5089534;28;20035;-88
2023/01/12 02:37:00;;;;;;;13.00;11.35;;;;;;;7.30;75.93;99717.25;5091392;28;20024;-87
2023/01/12 02:39:36;;;;;;;14.77;11.55;;;;;;;7.35;75.61;99711.56;5089902;28;20115;-88
2023/01/12 02:44:58;;;;;;;13.00;10.52;;;;;;;7.34;75.90;99712.53;5091497;28;20093;-87
2023/01/12 02:47:43;;;;;;;13.38;11.40;;;;;;;7.24;75.72;99727.56;5089885;28;20027;-87
2023/01/12 02:50:13;;;;;;;12.52;11.23;;;;;;;7.04;76.01;99677.00;5091242;28;20111;-87
2023/01/12 02:52:44;;;;;;;13.02;11.65;;;;;;;6.72;76.12;99611.97;5091174;28;20024;-87
2023/01/12 02:55:12;;;;;;;14.52;12.95;;;;;;;7.34;76.04;99712.53;5091071;28;20047;-87
2023/01/12 02:57:37;;;;;;;15.38;13.68;;;;;;;7.34;75.83;99713.34;5091097;28;20024;-88
2023/01/12 03:00:05;;;;;;;13.35;12.02;;;;;;;7.04;75.82;99653.38;5089563;28;20024;-87
2023/01/12 03:02:31;;;;;;;14.55;13.00;;;;;;;6.84;76.03;99637.00;5091003;28;20398;-88
2023/01/12 03:04:56;;;;;;;15.18;13.10;;;;;;;7.20;76.03;99705.19;5091190;28;20027;-88
2023/01/12 03:07:36;;;;;;;13.68;12.27;;;;;;;7.14;75.80;99684.81;5089739;28;20024;-88
2023/01/12 03:10:24;;;;;;;14.05;12.55;;;;;;;6.68;75.56;99610.59;5091093;28;20103;-88
2023/01/12 03:12:51;;;;;;;16.48;14.57;;;;;;;6.94;76.25;99673.66;5090844;28;20032;-88
2023/01/12 03:15:18;;;;;;;16.05;13.13;;;;;;;6.85;76.05;99656.19;5089650;28;20515;-87
2023/01/12 03:18:01;;;;;;;15.65;14.02;;;;;;;6.59;76.17;99616.75;5090883;28;20065;-87
2023/01/12 03:20:33;;;;;;;17.10;14.90;;;;;;;7.21;76.02;99718.19;5089149;28;20044;-87
2023/01/12 03:23:12;;;;;;;16.50;14.63;;;;;;;6.87;76.32;99662.09;5089394;28;20072;-87
2023/01/12 03:25:42;;;;;;;15.55;12.93;;;;;;;7.10;76.23;99700.03;5089596;28;20111;-87
2023/01/12 03:28:11;;;;;;;15.35;13.02;;;;;;;7.27;76.42;99729.88;5093775;28;20020;-87
2023/01/12 03:30:41;;;;;;;15.68;13.27;;;;;;;7.01;76.13;99683.41;5094438;28;20020;-87
2023/01/12 03:33:08;;;;;;;15.13;12.77;;;;;;;6.74;76.52;99648.56;5094399;28;20027;-87
2023/01/12 03:35:54;;;;;;;15.18;12.60;;;;;;;6.83;75.84;99669.47;5093174;28;20038;-86
2023/01/12 03:38:40;;;;;;;16.88;14.30;;;;;;;6.85;76.10;99671.94;5094423;28;20056;-88
2023/01/12 03:41:13;;;;;;;14.63;13.10;;;;;;;6.98;76.36;99698.63;5094085;28;20028;-88
2023/01/12 03:43:48;;;;;;;16.15;13.80;;;;;;;7.03;76.02;99704.25;5094047;28;20016;-87
2023/01/12 03:46:22;;;;;;;16.27;13.77;;;;;;;6.49;75.82;99618.63;5092712;28;20032;-87
2023/01/12 03:48:57;;;;;;;15.48;13.75;;;;;;;7.33;76.32;99739.78;5094047;28;20028;-87
2023/01/12 03:51:44;;;;;;;16.23;14.55;;;;;;;7.33;76.06;99737.97;5092858;28;20020;-88
2023/01/12 03:54:13;;;;;;;17.50;14.75;;;;;;;7.17;76.02;99714.22;5094150;28;20030;-88
2023/01/12 03:56:40;;;;;;;16.33;14.50;;;;;;;6.98;76.10;99678.44;5094176;28;20044;-86
2023/01/12 03:59:05;;;;;;;16.73;15.02;;;;;;;6.94;76.12;99707.78;5092509;28;20074;-88
2023/01/12 04:01:31;;;;;;;15.45;13.85;;;;;;;7.00;76.26;99688.78;5092647;28;20024;-88
2023/01/12 04:03:57;;;;;;;17.40;15.50;;;;;;;6.66;76.52;99634.34;5092651;28;20024;-88
2023/01/12 04:06:22;;;;;;;19.55;15.80;;;;;;;6.13;75.77;99560.94;5093888;28;20107;-87
2023/01/12 04:08:47;;;;;;;17.90;14.23;;;;;;;7.11;75.86;99732.38;5093753;28;20519;-87
2023/01/12 04:13:57;;;;;;;14.75;13.00;;;;;;;6.44;75.87;99639.22;5094030;28;20079;-87
2023/01/12 04:16:22;;;;;;;15.95;14.25;;;;;;;7.04;76.21;99719.03;5093622;28;20492;-88
2023/01/12 04:18:48;;;;;;;16.02;14.43;;;;;;;6.93;76.41;99706.94;5093304;28;20028;-88
2023/01/12 04:23:59;;;;;;;15.35;12.15;;;;;;;7.01;76.02;99722.78;5086158;28;20539;-87
2023/01/12 04:26:25;;;;;;;15.32;12.52;;;;;;;7.32;76.10;99764.38;5093415;28;20048;-88
2023/01/12 04:28:50;;;;;;;14.93;13.38;;;;;;;6.77;76.39;99674.50;5093300;28;20123;-87
2023/01/12 04:31:16;;;;;;;15.05;13.35;;;;;;;6.95;75.69;99709.44;5093166;28;20016;-87
2023/01/12 04:33:42;;;;;;;15.45;13.55;;;;;;;6.82;75.86;99701.94;5091855;28;20462;-87
2023/01/12 04:36:10;;;;;;;14.82;13.23;;;;;;;7.19;75.72;99756.06;5093283;28;20028;-85
2023/01/12 04:38:39;;;;;;;16.10;14.50;;;;;;;6.71;76.20;99673.28;5093321;28;20016;-86
2023/01/12 04:41:05;;;;;;;15.50;13.27;;;;;;;7.40;75.61;99767.06;5091800;28;20016;-87
2023/01/12 04:43:31;;;;;;;15.57;13.88;;;;;;;6.93;75.80;99706.13;5093116;28;20020;-86
2023/01/12 04:45:56;;;;;;;15.90;13.77;;;;;;;6.50;76.07;99621.09;5093132;28;20024;-86
2023/01/12 04:48:22;;;;;;;16.17;14.05;;;;;;;6.63;76.00;99653.03;5093283;28;20020;-86
2023/01/12 04:50:49;;;;;;;16.40;14.40;;;;;;;6.67;76.48;99650.91;5093114;28;20019;-87
2023/01/12 04:53:15;;;;;;;16.25;13.43;;;;;;;6.78;75.91;99676.97;5092112;28;20027;-87
2023/01/12 04:55:42;;;;;;;16.83;15.02;;;;;;;7.01;75.67;99712.28;5091644;28;20020;-87
2023/01/12 04:58:07;;;;;;;15.15;13.55;;;;;;;7.11;75.84;99735.81;5092894;28;20043;-86
2023/01/12 05:00:34;;;;;;;17.00;14.10;;;;;;;7.15;76.31;99728.47;5092850;28;20016;-86
2023/01/12 05:03:01;;;;;;;16.90;13.45;;;;;;;7.36;75.77;99763.09;5091358;28;20404;-87
2023/01/12 05:05:27;;;;;;;13.18;11.77;;;;;;;6.68;75.77;99669.13;5092617;28;20020;-88
2023/01/12 05:10:37;;;;;;;14.57;11.38;;;;;;;6.81;76.18;99688.97;5092934;28;20062;-86
2023/01/12 05:13:03;;;;;;;13.07;11.20;;;;;;;6.87;75.97;99707.56;5092456;28;20024;-86
2023/01/12 05:15:28;;;;;;;14.60;11.52;;;;;;;6.55;75.71;99689.66;5092383;28;20020;-86
2023/01/12 05:17:55;;;;;;;11.23;9.88;;;;;;;7.23;75.66;99774.00;5092269;28;20020;-85
2023/01/12 05:20:21;;;;;;;11.05;9.95;;;;;;;7.04;75.31;99754.94;5090837;28;20036;-87
2023/01/12 05:22:51;;;;;;;12.95;11.00;;;;;;;7.17;75.24;99779.84;5091000;28;20031;-86
2023/01/12 05:25:17;;;;;;;11.63;10.38;;;;;;;6.99;75.35;99758.84;5092528;28;20020;-85
2023/01/12 05:27:42;;;;;;;10.75;9.65;;;;;;;6.28;75.47;99627.59;5092256;28;20088;-85
2023/01/12 05:30:08;;;;;;;10.73;9.63;;;;;;;6.89;75.16;99726.59;5092220;28;20412;-86
2023/01/12 05:32:39;;;;;;;13.50;11.48;;;;;;;6.60;75.61;99686.59;5092236;28;20024;-87
2023/01/12 05:35:06;;;;;;;11.38;10.15;;;;;;;7.18;75.28;99776.25;5091972;28;20564;-85
2023/01/12 05:37:31;;;;;;;13.63;10.82;;;;;;;6.59;75.51;99695.44;5090690;28;20028;-85
2023/01/12 05:39:56;;;;;;;12.15;10.40;;;;;;;6.57;75.60;99706.09;5091985;28;20081;-83
2023/01/12 05:45:07;;;;;;;11.82;10.60;;;;;;;7.07;75.83;99794.03;5092186;28;20027;-83
2023/01/12 05:47:32;;;;;;;12.25;10.95;;;;;;;7.05;75.37;99772.34;5092292;28;20024;-85
2023/01/12 05:49:58;;;;;;;15.75;11.90;;;;;;;6.43;75.20;99667.25;5090300;28;20016;-85
2023/01/12 05:52:23;;;;;;;14.25;10.80;;;;;;;6.69;75.04;99714.59;5090530;28;20424;-83
2023/01/12 05:54:48;;;;;;;11.27;10.10;;;;;;;6.75;74.86;99745.50;5090411;28;20149;-85
2023/01/12 05:57:14;;;;;;;13.50;11.30;;;;;;;6.34;75.31;99678.63;5090350;28;20019;-82
2023/01/12 05:59:39;;;;;;;12.07;9.80;;;;;;;6.56;75.39;99719.34;5091545;28;20045;-83
2023/01/12 06:02:05;;;;;;;11.93;10.50;;;;;;;6.90;75.29;99777.28;5090704;28;20034;-82
2023/01/12 06:04:30;;;;;;;19.25;13.95;;;;;;;7.13;75.23;99803.94;5091595;28;20020;-85
2023/01/12 06:06:55;;;;;;;11.07;9.20;;;;;;;6.93;75.16;99763.88;5091443;28;20031;-82
2023/01/12 06:09:21;;;;;;;12.23;10.27;;;;;;;6.92;75.14;99759.59;5090155;28;20050;-84
2023/01/12 06:14:30;;;;;;;13.82;11.15;;;;;;;6.62;74.59;99739.75;5091606;28;20026;-81
2023/01/12 06:16:56;;;;;;;12.65;11.35;;;;;;;6.08;74.49;99633.94;5097229;28;20004;-80
2023/01/12 06:19:21;;;;;;;13.15;11.75;;;;;;;7.17;74.85;99813.16;5115989;28;20040;-83
2023/01/12 06:21:46;;;;;;;14.35;11.70;;;;;;;6.69;74.69;99725.91;5096745;28;20035;-82
2023/01/12 06:24:12;;;;;;;14.23;11.57;;;;;;;6.98;74.98;99775.56;5092057;28;20055;-84
2023/01/12 06:26:37;;;;;;;11.18;9.82;;;;;;;6.93;74.86;99777.81;5090723;28;20084;-84
2023/01/12 06:29:05;;;;;;;14.27;10.57;;;;;;;6.99;74.64;99785.09;5090702;28;20099;-84
2023/01/12 06:31:31;;;;;;;12.48;11.02;;;;;;;6.93;74.63;99762.06;5090369;28;20058;-82
2023/01/12 06:33:57;;;;;;;11.48;10.27;;;;;;;6.85;74.28;99748.03;5089921;28;20051;-85
2023/01/12 06:36:22;;;;;;;10.18;8.27;;;;;;;6.88;74.47;99753.81;5090002;28;20070;-85
2023/01/12 06:38:47;;;;;;;15.00;11.93;;;;;;;6.82;73.69;99749.16;5094389;28;20049;-84
2023/01/12 06:43:58;;;;;;;17.63;13.20;;;;;;;6.84;73.71;99735.91;5082230;28;20158;-85
2023/01/12 06:46:25;;;;;;;14.88;11.02;;;;;;;6.97;73.46;99754.72;5089643;28;20107;-83
2023/01/12 06:48:51;;;;;;;15.38;12.45;;;;;;;7.33;73.55;99808.88;5089547;28;20047;-85
2023/01/12 06:51:16;;;;;;;18.20;14.63;;;;;;;7.09;73.39;99781.56;5089625;28;20477;-83
2023/01/12 06:53:41;;;;;;;16.23;12.60;;;;;;;6.51;73.23;99688.31;5090868;28;20027;-85
2023/01/12 06:56:07;;;;;;;13.93;10.82;;;;;;;6.71;73.44;99727.56;5089646;28;20024;-83
2023/01/12 06:58:32;;;;;;;16.23;13.13;;;;;;;6.74;73.24;99730.72;5089356;28;20031;-82
2023/01/12 07:01:02;;;;;;;13.98;11.50;;;;;;;7.30;72.81;99805.72;5095137;28;20055;-85
2023/01/12 07:03:28;;;;;;;13.02;10.88;;;;;;;6.94;73.50;99768.16;5094355;28;20179;-85
2023/01/12 07:05:56;;;;;;;17.48;13.25;;;;;;;7.23;73.05;99815.19;5096089;28;20032;-84
2023/01/12 07:08:21;;;;;;;14.90;11.82;;;;;;;7.20;73.40;99813.69;5093619;28;20524;-84
2023/01/12 07:10:47;;;;;;;14.85;12.95;;;;;;;7.37;72.81;99832.22;5093865;28;20092;-84
2023/01/12 07:13:12;;;;;;;14.45;11.05;;;;;;;7.12;72.73;99779.47;5095053;27;20024;-85
2023/01/12 07:15:38;;;;;;;23.40;16.50;;;;;;;7.39;73.15;99827.63;5101035;28;20028;-82
2023/01/12 07:18:03;;;;;;;11.30;10.13;;;;;;;7.04;72.73;99762.81;5095726;28;20020;-82
2023/01/12 07:20:29;;;;;;;11.98;9.15;;;;;;;6.83;72.47;99737.69;5089994;28;20028;-84
2023/01/12 07:22:54;;;;;;;10.65;8.77;;;;;;;7.13;72.77;99819.69;5095297;28;20085;-83
2023/01/12 07:25:20;;;;;;;10.75;9.02;;;;;;;7.05;72.51;99781.06;5094315;28;20028;-83
2023/01/12 07:27:50;;;;;;;10.48;8.60;;;;;;;7.46;71.88;99834.81;5093712;28;20034;-82
2023/01/12 07:30:17;;;;;;;10.63;8.43;;;;;;;7.27;72.37;99822.63;5091877;28;20113;-82
2023/01/12 07:32:42;;;;;;;8.93;7.88;;;;;;;7.09;71.70;99771.06;5091856;28;20069;-84
2023/01/12 07:35:08;;;;;;;11.80;10.23;;;;;;;7.29;71.62;99825.91;5093020;28;20106;-84
2023/01/12 07:37:33;;;;;;;15.48;12.93;;;;;;;7.04;71.71;99765.44;5094125;28;20016;-84
2023/01/12 07:39:58;;;;;;;16.90;13.10;;;;;;;7.31;71.79;99796.88;5094851;28;20149;-82
2023/01/12 07:42:24;;;;;;;13.80;11.38;;;;;;;7.59;72.01;99848.38;5094791;28;20143;-83
2023/01/12 07:44:49;;;;;;;13.50;10.15;;;;;;;6.83;71.98;99711.44;5093489;28;20028;-83
2023/01/12 07:47:15;;;;;;;14.07;11.13;;;;;;;7.14;72.07;99760.94;5093285;28;20103;-82
2023/01/12 07:49:40;;;;;;;11.52;9.07;;;;;;;7.48;72.15;99826.78;5093695;28;20458;-84
2023/01/12 07:52:06;;;;;;;9.82;8.63;;;;;;;7.40;72.10;99818.78;5092259;28;20024;-83
2023/01/12 07:54:35;;;;;;;11.35;9.27;;;;;;;7.04;72.01;99744.44;5094331;28;20020;-85
2023/01/12 07:57:01;;;;;;;13.93;12.23;;;;;;;7.67;72.06;99841.53;5094633;28;20027;-84
2023/01/12 07:59:26;;;;;;;16.42;12.55;;;;;;;7.59;71.82;99829.97;5093706;28;20024;-83
2023/01/12 08:01:54;;;;;;;12.80;10.13;;;;;;;7.82;72.04;99863.66;5092936;28;20035;-85
2023/01/12 08:04:20;;;;;;;15.85;13.07;;;;;;;7.25;72.25;99779.09;5094478;28;20163;-84
2023/01/12 08:06:46;;;;;;;15.32;12.43;;;;;;;7.89;72.45;99880.47;5094101;28;20074;-85
2023/01/12 08:09:11;;;;;;;15.73;13.35;;;;;;;6.28;72.38;99601.38;5093197;28;20507;-84
2023/01/12 08:11:37;;;;;;;14.93;12.07;;;;;;;7.09;72.36;99724.63;5092879;28;20385;-85
2023/01/12 08:14:04;;;;;;;14.32;11.27;;;;;;;8.00;72.24;99866.25;5093815;28;20024;-85
2023/01/12 08:16:45;;;;;;;16.65;12.98;;;;;;;7.55;72.35;99793.66;5092862;28;20521;-86
2023/01/12 08:19:17;;;;;;;15.65;12.98;;;;;;;7.41;72.13;99795.00;5092015;28;20548;-85
2023/01/12 08:22:14;;;;;;;17.40;14.70;;;;;;;7.82;72.55;99847.91;5089664;28;20081;-85
2023/01/12 08:24:47;;;;;;;18.38;14.57;;;;;;;7.54;72.55;99823.53;5081626;28;20458;-85
2023/01/12 08:27:12;;;;;;;15.35;13.65;;;;;;;7.42;72.88;99791.38;5084707;28;20048;-86
2023/01/12 08:29:45;;;;;;;14.13;11.90;;;;;;;8.05;72.88;99887.66;5093153;28;20055;-84
2023/01/12 08:32:12;;;;;;;12.68;10.98;;;;;;;7.78;72.44;99846.56;5071846;28;20044;-85
2023/01/12 08:34:44;;;;;;;14.98;12.15;;;;;;;7.74;72.43;99835.53;5088912;28;20020;-86
2023/01/12 08:37:13;;;;;;;12.75;11.45;;;;;;;7.69;72.35;99831.69;5081231;28;20432;-84
2023/01/12 08:39:38;;;;;;;13.30;11.00;;;;;;;8.05;72.61;99892.94;5093679;28;20027;-86
2023/01/12 08:42:04;;;;;;;13.27;11.05;;;;;;;8.07;72.87;99889.16;5090446;28;20092;-84
2023/01/12 08:44:35;;;;;;;13.68;11.35;;;;;;;7.47;72.68;99801.47;5084923;28;20028;-84
2023/01/12 08:47:02;;;;;;;12.15;10.52;;;;;;;8.08;73.16;99895.25;5092545;28;20020;-84
2023/01/12 08:49:29;;;;;;;15.93;13.18;;;;;;;8.07;72.56;99904.94;5092521;28;20051;-84
2023/01/12 08:51:55;;;;;;;15.68;12.65;;;;;;;7.64;72.87;99840.88;5091093;28;20020;-80
2023/01/12 08:54:21;;;;;;;13.98;11.90;;;;;;;7.87;72.94;99878.00;5094896;28;20084;-84
2023/01/12 08:56:48;;;;;;;10.95;9.13;;;;;;;8.03;73.56;99897.50;5081220;28;20024;-85
2023/01/12 08:59:14;;;;;;;15.43;12.68;;;;;;;8.07;72.94;99898.84;5092515;28;20016;-85
2023/01/12 09:01:40;;;;;;;14.65;11.60;;;;;;;7.86;73.05;99870.28;5090042;28;20853;-85
2023/01/12 09:04:05;;;;;;;15.10;11.88;;;;;;;7.88;73.18;99863.06;5090210;28;20035;-85
2023/01/12 09:06:36;;;;;;;11.80;9.82;;;;;;;7.44;72.87;99807.84;5089517;28;20193;-85
2023/01/12 09:09:05;;;;;;;14.43;12.25;;;;;;;7.36;73.25;99776.22;5090302;28;20032;-84
2023/01/12 09:11:31;;;;;;;12.35;10.45;;;;;;;7.70;72.83;99838.59;5090746;28;20113;-85
2023/01/12 09:13:57;;;;;;;11.90;10.27;;;;;;;7.22;72.82;99761.00;5095881;28;20027;-85
2023/01/12 09:16:28;;;;;;;14.75;11.43;;;;;;;8.09;72.95;99892.47;5089953;28;20035;-84
2023/01/12 09:18:54;;;;;;;12.43;9.77;;;;;;;7.15;72.99;99752.09;5090738;28;20465;-83
2023/01/12 09:21:21;;;;;;;11.10;9.75;;;;;;;8.07;73.09;99897.06;5092854;28;20060;-84
2023/01/12 09:23:54;;;;;;;11.70;9.93;;;;;;;7.48;73.11;99809.19;5093500;28;20099;-84
2023/01/12 09:26:26;;;;;;;12.63;10.18;;;;;;;8.00;72.82;99882.88;5099798;28;20012;-82
2023/01/12 09:28:52;;;;;;;11.88;10.65;;;;;;;8.02;72.83;99888.81;5114974;28;20023;-82
2023/01/12 09:31:20;;;;;;;12.40;10.82;;;;;;;8.06;72.93;99886.69;5106782;28;20026;-83
2023/01/12 09:33:46;;;;;;;13.90;12.07;;;;;;;7.68;73.18;99824.78;5094659;28;20153;-83
2023/01/12 09:36:20;;;;;;;12.95;10.43;;;;;;;8.07;73.20;99894.44;5090160;28;20119;-83
2023/01/12 09:38:46;;;;;;;13.10;11.48;;;;;;;7.97;72.90;99868.22;5092853;28;20027;-84
2023/01/12 09:47:15;;;;;;;11.82;9.70;;;;;;;8.16;72.89;99875.09;5083628;28;20180;-84
2023/01/12 09:49:44;;;;;;;11.13;9.63;;;;;;;8.19;73.03;99881.88;5085557;28;20024;-82
2023/01/12 09:52:09;;;;;;;12.73;10.23;;;;;;;8.23;72.59;99872.69;5093277;28;20153;-81
2023/01/12 09:54:35;;;;;;;14.07;11.23;;;;;;;7.78;73.13;99796.63;5118044;28;20207;-80
2023/01/12 09:57:11;;;;;;;11.10;8.95;;;;;;;7.90;72.71;99819.03;5104737;28;20028;-83
2023/01/12 09:59:57;;;;;;;11.60;9.52;;;;;;;8.28;72.83;99866.00;5089299;28;20024;-81
2023/01/12 10:02:24;;;;;;;13.45;10.75;;;;;;;8.16;72.83;99835.63;5090075;28;20024;-83
2023/01/12 10:04:52;;;;;;;13.68;11.32;;;;;;;8.14;72.84;99824.44;5092261;28;20050;-82
2023/01/12 10:07:18;;;;;;;18.42;13.82;;;;;;;8.02;72.89;99802.03;5090487;28;20020;-81
2023/01/12 10:09:44;;;;;;;14.40;12.25;;;;;;;8.11;72.70;99811.63;5087909;28;20036;-80
2023/01/12 10:12:29;;;;;;;15.50;12.88;;;;;;;8.18;72.73;99820.56;5090654;28;20031;-81
2023/01/12 10:15:22;;;;;;;11.65;9.48;;;;;;;8.49;72.54;99854.28;5087915;28;20024;-82
2023/01/12 10:18:14;;;;;;;11.95;10.50;;;;;;;8.51;72.73;99852.34;5090494;28;20467;-81
2023/01/12 10:20:42;;;;;;;11.15;9.95;;;;;;;6.89;72.49;99592.75;5088100;28;20036;-81
2023/01/12 10:23:07;;;;;;;11.55;9.77;;;;;;;8.62;72.41;99851.22;5090134;28;20016;-81
2023/01/12 10:25:38;;;;;;;9.60;8.25;;;;;;;8.63;72.71;99851.06;5091504;28;20038;-81
2023/01/12 10:28:28;;;;;;;11.43;8.25;;;;;;;8.66;72.50;99857.81;5091597;28;20031;-79
2023/01/12 10:30:55;;;;;;;10.80;8.10;;;;;;;8.47;72.25;99830.78;5088517;28;20051;-80
2023/01/12 10:33:23;;;;;;;13.60;10.18;;;;;;;8.69;72.36;99844.34;5090843;28;20028;-80
2023/01/12 10:35:57;;;;;;;12.13;10.10;;;;;;;8.73;72.41;99837.78;5090100;28;20415;-83
2023/01/12 10:38:31;;;;;;;10.02;8.50;;;;;;;8.76;72.12;99830.38;5092751;28;20036;-82
2023/01/12 10:41:04;;;;;;;8.63;6.72;;;;;;;8.77;71.77;99828.59;5095350;28;20024;-81
2023/01/12 10:43:33;;;;;;;7.45;6.68;;;;;;;8.76;71.98;99827.75;5095608;28;20032;-80
2023/01/12 10:46:01;;;;;;;8.20;6.57;;;;;;;8.82;72.05;99819.22;5093309;28;20028;-81
2023/01/12 10:48:27;;;;;;;7.90;7.00;;;;;;;8.40;71.41;99742.91;5107866;28;20524;-81
2023/01/12 10:51:25;;;;;;;13.93;11.45;;;;;;;8.87;71.47;99818.75;5094996;28;20017;-82
2023/01/12 10:54:07;;;;;;;8.35;6.20;;;;;;;8.90;71.63;99818.41;5093434;28;20119;-80
2023/01/12 10:56:40;;;;;;;9.88;7.07;;;;;;;8.81;71.33;99807.03;5095239;28;20024;-80
2023/01/12 10:59:18;;;;;;;9.32;7.63;;;;;;;8.56;71.30;99757.94;5094431;28;20043;-80
2023/01/12 11:01:51;;;;;;;7.65;6.60;;;;;;;8.61;70.76;99766.19;5093241;28;20034;-80
2023/01/12 11:04:22;;;;;;;7.55;6.35;;;;;;;9.01;71.21;99822.59;5079338;28;20023;-80
2023/01/12 11:07:01;;;;;;;8.70;7.80;;;;;;;8.98;70.22;99818.47;5095807;27;20020;-83
2023/01/12 11:09:30;;;;;;;8.05;7.22;;;;;;;9.00;70.88;99816.50;5083221;28;20028;-79
2023/01/12 11:11:58;;;;;;;7.78;6.72;;;;;;;9.01;71.03;99814.69;5087698;28;20139;-80
2023/01/12 11:14:32;;;;;;;7.13;6.43;;;;;;;8.63;71.02;99769.47;5094541;28;20493;-80
2023/01/12 11:17:22;;;;;;;8.75;7.95;;;;;;;9.01;71.05;99801.53;5092086;28;20108;-80
2023/01/12 11:19:50;;;;;;;9.82;8.60;;;;;;;8.56;70.47;99768.47;5090147;28;20050;-80
2023/01/12 11:22:30;;;;;;;8.35;7.53;;;;;;;8.82;70.26;99771.81;5087915;28;20031;-80
2023/01/12 11:25:08;;;;;;;8.82;7.93;;;;;;;9.12;70.60;99815.22;5083821;28;20028;-80
2023/01/12 11:27:39;;;;;;;9.23;7.63;;;;;;;8.93;70.97;99789.16;5092535;28;20077;-80
2023/01/12 11:30:13;;;;;;;9.43;7.85;;;;;;;9.18;70.74;99806.66;5086299;28;20061;-79
2023/01/12 11:32:43;;;;;;;9.25;8.13;;;;;;;9.22;70.60;99812.41;5093595;28;20060;-81
2023/01/12 11:35:29;;;;;;;8.23;6.65;;;;;;;9.22;70.43;99810.63;5092001;28;20020;-80
2023/01/12 11:38:01;;;;;;;9.25;8.05;;;;;;;9.11;70.39;99804.84;5088712;28;20488;-82
2023/01/12 11:40:31;;;;;;;;;;;;;;;9.17;70.71;99806.81;5093886;28;20103;-80
2023/01/12 11:45:58;;;;;;;12.10;9.85;;;;;;;9.28;70.65;99800.41;5093575;28;20460;-81
2023/01/12 11:48:50;;;;;;;11.38;9.55;;;;;;;9.08;70.69;99753.31;5091922;28;20016;-80
2023/01/12 11:51:15;;;;;;;10.82;9.25;;;;;;;9.04;70.91;99762.50;5091279;28;20028;-80
2023/01/12 11:53:42;;;;;;;9.48;8.48;;;;;;;8.72;71.08;99702.72;5088449;28;20172;-81
2023/01/12 11:56:25;;;;;;;9.40;7.60;;;;;;;9.31;70.73;99779.00;5090536;28;20593;-81
2023/01/12 11:59:04;;;;;;;9.20;8.30;;;;;;;9.23;71.01;99779.81;5092092;28;20503;-81
2023/01/12 12:01:42;;;;;;;10.90;8.40;;;;;;;9.36;70.95;99782.78;5090705;28;20686;-82
2023/01/12 12:04:26;;;;;;;10.18;9.05;;;;;;;9.32;70.96;99781.47;5092472;28;20031;-81
2023/01/12 12:07:10;;;;;;;13.43;10.35;;;;;;;9.19;70.78;99757.44;5091971;28;20028;-81
2023/01/12 12:10:00;;;;;;;9.23;7.90;;;;;;;9.40;70.62;99773.56;5093215;28;20020;-82
2023/01/12 12:12:31;;;;;;;8.82;7.90;;;;;;;9.46;70.76;99770.28;5094446;28;20062;-83
2023/01/12 12:15:45;;;;;;;7.93;6.88;;;;;;;9.53;69.88;99779.16;5092495;28;20402;-81
2023/01/12 12:18:24;;;;;;;7.88;6.15;;;;;;;9.55;70.25;99777.19;5089509;28;20032;-82
2023/01/12 12:21:15;;;;;;;7.38;6.57;;;;;;;9.60;69.83;99768.78;5093391;28;20039;-82